Time;durP1;ratioP1;P1;durP2;ratioP2;P2;SDS_P1;SDS_P2;PMS_P1;PMS_P2;Temp;Humidity;BMP_temperature;BMP_pressure;BME280_temperature;BME280_humidity;BME280_pressure;Samples;Min_cycle;Max_cycle;Signal;HPM_P1;HPM_P2
2023/10/25 00:01:42;;;;;;;12.95;10.90;;;;;;;9.56;100.00;99592.28;7394339;19;20372;-73
2023/10/25 00:04:10;;;;;;;12.27;10.60;;;;;;;9.58;100.00;99589.44;7396079;19;20348;-73
2023/10/25 00:06:37;;;;;;;13.35;10.70;;;;;;;9.56;100.00;99586.16;7392263;19;20429;-73
2023/10/25 00:09:04;;;;;;;13.05;10.70;;;;;;;9.55;100.00;99576.59;7389274;19;20368;-72
2023/10/25 00:11:31;;;;;;;12.75;10.48;;;;;;;9.57;100.00;99582.50;7394006;19;20368;-73
2023/10/25 00:13:58;;;;;;;15.50;11.07;;;;;;;9.55;100.00;99576.59;7393537;19;20930;-73
2023/10/25 00:16:26;;;;;;;14.05;11.43;;;;;;;9.54;100.00;99588.19;7393201;19;20396;-73
2023/10/25 00:18:53;;;;;;;14.10;10.33;;;;;;;9.52;100.00;99591.03;7392503;19;20397;-73
2023/10/25 00:21:20;;;;;;;12.73;10.35;;;;;;;9.51;100.00;99588.59;7392543;19;20360;-73
2023/10/25 00:23:47;;;;;;;14.93;10.85;;;;;;;9.50;100.00;99594.88;7392725;19;20328;-73
2023/10/25 00:26:13;;;;;;;12.50;10.25;;;;;;;9.48;100.00;99589.78;7391346;19;20395;-73
2023/10/25 00:28:46;;;;;;;16.92;10.88;;;;;;;9.46;100.00;99591.81;7391618;19;20385;-73
2023/10/25 00:31:13;;;;;;;12.40;10.55;;;;;;;9.44;100.00;99593.03;7391534;19;20863;-73
2023/10/25 00:33:40;;;;;;;13.63;10.60;;;;;;;9.43;100.00;99586.09;7391744;19;20321;-73
2023/10/25 00:36:07;;;;;;;12.25;10.52;;;;;;;9.42;100.00;99589.75;7394318;19;21472;-73
2023/10/25 00:38:34;;;;;;;13.57;10.82;;;;;;;9.39;100.00;99583.84;7391850;19;20373;-73
2023/10/25 00:41:01;;;;;;;11.73;10.40;;;;;;;9.38;100.00;99584.84;7393731;19;20432;-73
2023/10/25 00:43:28;;;;;;;14.23;10.60;;;;;;;9.36;100.00;99578.13;7390813;19;20456;-73
2023/10/25 00:45:59;;;;;;;12.52;10.70;;;;;;;9.35;100.00;99585.25;7390461;19;20382;-73
2023/10/25 00:48:28;;;;;;;13.50;10.83;;;;;;;9.33;100.00;99581.16;7390243;19;20942;-73
2023/10/25 00:50:55;;;;;;;12.23;10.73;;;;;;;9.31;100.00;99586.63;7389719;19;20353;-73
2023/10/25 00:53:23;;;;;;;13.13;11.05;;;;;;;9.30;100.00;99592.13;7391591;19;20367;-73
2023/10/25 00:55:56;;;;;;;13.85;10.18;;;;;;;9.27;100.00;99588.03;7392258;19;20371;-73
2023/10/25 00:58:24;;;;;;;15.03;10.40;;;;;;;9.25;100.00;99592.69;7393191;19;20439;-73
2023/10/25 01:00:54;;;;;;;12.40;10.67;;;;;;;9.23;100.00;99589.44;7390887;19;20357;-73
2023/10/25 01:03:22;;;;;;;15.85;10.60;;;;;;;9.24;100.00;99598.19;7389350;19;20381;-73
2023/10/25 01:05:49;;;;;;;15.43;11.25;;;;;;;9.22;100.00;99601.00;7393830;19;20329;-73
2023/10/25 01:08:20;;;;;;;15.65;10.43;;;;;;;9.22;100.00;99603.66;7390146;19;20395;-73
2023/10/25 01:10:49;;;;;;;12.40;10.07;;;;;;;9.23;100.00;99599.22;7392003;19;20757;-73
2023/10/25 01:13:17;;;;;;;18.73;10.32;;;;;;;9.25;100.00;99597.19;7390064;19;20923;-73
2023/10/25 01:15:45;;;;;;;12.13;9.07;;;;;;;9.28;100.00;99596.78;7393683;19;20367;-73
2023/10/25 01:18:14;;;;;;;12.73;8.90;;;;;;;9.32;100.00;99593.56;7388650;19;21026;-73
2023/10/25 01:20:44;;;;;;;11.68;8.43;;;;;;;9.37;100.00;99588.50;7390001;19;20396;-73
2023/10/25 01:23:12;;;;;;;10.50;7.82;;;;;;;9.40;100.00;99587.31;7390003;19;20406;-73
2023/10/25 01:25:44;;;;;;;10.63;7.47;;;;;;;9.46;100.00;99585.72;7387103;19;20402;-73
2023/10/25 01:28:11;;;;;;;8.75;7.00;;;;;;;9.50;100.00;99587.78;7392154;19;20366;-73
2023/10/25 01:30:39;;;;;;;8.95;6.60;;;;;;;9.53;100.00;99584.72;7388257;19;20361;-73
2023/10/25 01:33:07;;;;;;;10.95;6.90;;;;;;;9.56;100.00;99581.69;7391832;19;20738;-73
2023/10/25 01:35:35;;;;;;;8.23;6.60;;;;;;;9.59;100.00;99580.50;7393945;19;20464;-73
2023/10/25 01:38:02;;;;;;;8.02;6.18;;;;;;;9.62;100.00;99581.91;7388774;19;20889;-73
2023/10/25 01:40:30;;;;;;;8.60;6.50;;;;;;;9.63;100.00;99584.38;7388653;19;20384;-73
2023/10/25 01:42:57;;;;;;;8.48;6.25;;;;;;;9.66;100.00;99581.31;7392887;19;20373;-73
2023/10/25 01:45:27;;;;;;;7.22;5.93;;;;;;;9.68;100.00;99579.28;7387798;19;20401;-73
2023/10/25 01:47:54;;;;;;;8.35;6.07;;;;;;;9.70;100.00;99587.06;7389500;19;20380;-73
2023/10/25 01:50:21;;;;;;;7.00;5.70;;;;;;;9.71;100.00;99584.22;7390905;19;20413;-73
2023/10/25 01:52:48;;;;;;;7.70;6.03;;;;;;;9.72;100.00;99585.84;7392134;19;20328;-73
2023/10/25 01:55:15;;;;;;;8.65;5.57;;;;;;;9.72;100.00;99583.19;7388627;19;20325;-73
2023/10/25 01:57:44;;;;;;;7.45;5.75;;;;;;;9.73;100.00;99584.00;7392235;19;20865;-73
2023/10/25 02:00:11;;;;;;;6.18;5.25;;;;;;;9.71;100.00;99578.91;7395818;19;20463;-73
2023/10/25 02:02:39;;;;;;;10.02;5.60;;;;;;;9.72;100.00;99580.53;7393746;19;20415;-73
2023/10/25 02:05:06;;;;;;;8.27;6.13;;;;;;;9.73;100.00;99576.91;7398544;19;20410;-73
2023/10/25 02:07:34;;;;;;;7.30;5.72;;;;;;;9.73;100.00;99565.47;7396523;19;20385;-73
2023/10/25 02:10:02;;;;;;;7.93;5.22;;;;;;;9.76;100.00;99575.69;7396752;19;20424;-73
2023/10/25 02:12:29;;;;;;;8.35;5.82;;;;;;;9.77;100.00;99572.81;7399783;19;20380;-73
2023/10/25 02:14:56;;;;;;;7.63;5.53;;;;;;;9.78;100.00;99571.00;7395801;19;20440;-73
2023/10/25 02:17:22;;;;;;;6.85;5.50;;;;;;;9.82;100.00;99574.91;7396844;19;20352;-73
2023/10/25 02:19:49;;;;;;;17.05;5.22;;;;;;;9.85;100.00;99571.84;7393200;19;20346;-73
2023/10/25 02:22:16;;;;;;;8.27;5.20;;;;;;;9.87;100.00;99576.94;7397548;19;20753;-73
2023/10/25 02:24:43;;;;;;;9.15;5.50;;;;;;;9.88;100.00;99565.31;7396214;19;20357;-73
2023/10/25 02:27:10;;;;;;;5.90;5.22;;;;;;;9.90;100.00;99569.44;7400277;19;20925;-73
2023/10/25 02:29:37;;;;;;;7.32;4.93;;;;;;;9.90;100.00;99571.25;7396966;19;20779;-73
2023/10/25 02:32:07;;;;;;;7.70;4.80;;;;;;;9.92;100.00;99575.31;7396697;19;20380;-73
2023/10/25 02:34:35;;;;;;;7.53;5.00;;;;;;;9.91;100.00;99578.19;7399193;19;20885;-73
2023/10/25 02:37:02;;;;;;;6.63;4.63;;;;;;;9.91;99.96;99570.25;7392834;19;20336;-73
2023/10/25 02:39:29;;;;;;;8.10;4.90;;;;;;;9.92;100.00;99569.22;7395627;19;20415;-73
2023/10/25 02:41:56;;;;;;;7.20;5.03;;;;;;;9.92;99.76;99566.56;7399088;19;20446;-73
2023/10/25 02:44:23;;;;;;;7.07;4.60;;;;;;;9.91;99.75;99571.06;7391145;19;20400;-73
2023/10/25 02:46:49;;;;;;;6.70;4.88;;;;;;;9.92;99.66;99569.22;7395479;19;20348;-73
2023/10/25 02:49:16;;;;;;;6.77;4.60;;;;;;;9.91;99.63;99567.59;7396491;19;20740;-73
2023/10/25 02:51:43;;;;;;;6.30;4.55;;;;;;;9.91;99.72;99567.59;7395726;19;20360;-73
2023/10/25 02:54:10;;;;;;;7.60;5.03;;;;;;;9.90;99.66;99565.94;7397016;19;20332;-73
2023/10/25 02:56:37;;;;;;;6.28;4.57;;;;;;;9.90;99.59;99558.00;7395681;19;20365;-73
2023/10/25 02:59:04;;;;;;;7.10;4.80;;;;;;;9.89;99.63;99564.31;7398783;19;20332;-73
2023/10/25 03:01:31;;;;;;;6.30;4.50;;;;;;;9.89;99.50;99559.84;7392941;19;20748;-73
2023/10/25 03:03:59;;;;;;;6.22;4.50;;;;;;;9.91;99.87;99557.00;7394732;19;20824;-73
2023/10/25 03:06:26;;;;;;;8.23;4.90;;;;;;;9.92;99.94;99553.31;7398897;19;20361;-73
2023/10/25 03:08:53;;;;;;;6.55;4.90;;;;;;;9.93;99.67;99552.31;7397974;19;20702;-73
2023/10/25 03:11:20;;;;;;;7.15;4.60;;;;;;;9.95;99.73;99548.44;7393726;19;20396;-73
2023/10/25 03:13:46;;;;;;;7.68;4.80;;;;;;;10.00;99.59;99548.66;7394712;19;20960;-73
2023/10/25 03:16:13;;;;;;;7.47;4.88;;;;;;;10.04;99.48;99541.13;7395983;19;20383;-73
2023/10/25 03:18:40;;;;;;;5.70;4.32;;;;;;;10.06;99.38;99541.75;7397574;19;20360;-73
2023/10/25 03:21:07;;;;;;;5.15;4.18;;;;;;;10.10;99.03;99537.69;7392586;19;20407;-73
2023/10/25 03:23:34;;;;;;;7.45;4.80;;;;;;;10.12;98.69;99538.31;7393671;19;20372;-73
2023/10/25 03:26:06;;;;;;;6.88;4.13;;;;;;;10.16;98.96;99542.19;7395573;19;20923;-73
2023/10/25 03:28:33;;;;;;;6.93;3.97;;;;;;;10.18;98.45;99542.81;7392340;19;20884;-73
2023/10/25 03:31:08;;;;;;;6.82;3.72;;;;;;;10.19;98.37;99533.81;7393125;19;20869;-73
2023/10/25 03:33:36;;;;;;;9.35;4.00;;;;;;;10.22;98.15;99537.91;7392882;19;20356;-73
2023/10/25 03:36:03;;;;;;;7.25;4.40;;;;;;;10.23;98.01;99533.44;7397435;19;20349;-73
2023/10/25 03:38:33;;;;;;;5.80;3.30;;;;;;;10.24;97.87;99535.06;7393642;19;20894;-73
2023/10/25 03:41:03;;;;;;;6.05;4.00;;;;;;;10.24;97.91;99533.22;7391262;19;20384;-73
2023/10/25 03:43:32;;;;;;;6.75;3.83;;;;;;;10.25;97.51;99534.06;7394999;19;20394;-74
2023/10/25 03:46:07;;;;;;;5.63;3.58;;;;;;;10.23;97.42;99533.44;7394662;19;20328;-73
2023/10/25 03:48:36;;;;;;;5.93;3.92;;;;;;;10.22;97.50;99532.59;7395109;19;20364;-73
2023/10/25 03:51:04;;;;;;;6.80;3.80;;;;;;;10.19;97.29;99533.81;7392209;19;20369;-74
2023/10/25 03:53:38;;;;;;;5.35;4.30;;;;;;;10.16;97.42;99528.94;7392776;19;20388;-73
2023/10/25 03:56:04;;;;;;;5.23;4.20;;;;;;;10.16;97.12;99531.59;7395363;19;20360;-73
2023/10/25 03:58:32;;;;;;;5.60;4.13;;;;;;;10.15;97.25;99522.00;7394060;19;21013;-73
2023/10/25 04:01:00;;;;;;;5.25;4.00;;;;;;;10.15;97.14;99522.00;7393535;19;20376;-73
2023/10/25 04:03:28;;;;;;;6.40;4.05;;;;;;;10.13;97.37;99513.41;7392390;19;20408;-73
2023/10/25 04:05:55;;;;;;;6.47;3.88;;;;;;;10.10;96.99;99524.44;7397576;19;20344;-73
2023/10/25 04:08:23;;;;;;;9.20;4.53;;;;;;;10.07;97.48;99518.72;7393826;19;20752;-73
2023/10/25 04:10:56;;;;;;;6.28;4.10;;;;;;;10.05;97.25;99513.63;7391574;19;20380;-73
2023/10/25 04:13:23;;;;;;;6.25;4.03;;;;;;;10.04;97.32;99512.00;7393864;19;20731;-74
2023/10/25 04:16:00;;;;;;;8.57;3.87;;;;;;;10.00;97.06;99510.75;7393342;19;20945;-73
2023/10/25 04:18:29;;;;;;;8.20;3.83;;;;;;;9.97;97.39;99503.22;7389915;19;20394;-73
2023/10/25 04:20:57;;;;;;;7.28;3.30;;;;;;;9.95;97.19;99510.53;7390444;19;20728;-73
2023/10/25 04:23:25;;;;;;;7.68;3.72;;;;;;;9.92;97.17;99510.94;7395764;19;20363;-74
2023/10/25 04:25:52;;;;;;;6.82;3.53;;;;;;;9.90;97.32;99505.84;7395779;19;21123;-73
2023/10/25 04:28:19;;;;;;;5.00;3.70;;;;;;;9.90;97.09;99507.66;7395081;19;20651;-73
2023/10/25 04:30:46;;;;;;;6.97;3.60;;;;;;;9.87;97.12;99503.59;7388715;19;20355;-74
2023/10/25 04:33:14;;;;;;;5.13;3.75;;;;;;;9.86;96.91;99507.25;7394774;19;20368;-73
2023/10/25 04:35:41;;;;;;;7.53;4.10;;;;;;;9.80;96.89;99497.47;7394469;19;20343;-73
2023/10/25 04:38:08;;;;;;;6.50;3.78;;;;;;;9.73;97.07;99497.44;7392799;19;20369;-73
2023/10/25 04:40:35;;;;;;;5.50;3.70;;;;;;;9.69;97.33;99496.22;7393231;19;20376;-73
2023/10/25 04:43:02;;;;;;;7.18;3.97;;;;;;;9.65;97.03;99497.63;7392653;19;20947;-73
2023/10/25 04:45:29;;;;;;;5.97;4.00;;;;;;;9.58;97.21;99504.69;7390648;19;20372;-73
2023/10/25 04:47:56;;;;;;;8.00;4.60;;;;;;;9.54;97.56;99503.47;7391419;19;20369;-73
2023/10/25 04:50:23;;;;;;;6.57;4.47;;;;;;;9.47;98.48;99497.34;7389922;19;20353;-73
2023/10/25 04:52:50;;;;;;;7.53;4.93;;;;;;;9.43;98.67;99496.91;7394992;19;20360;-73
2023/10/25 04:55:17;;;;;;;7.88;4.97;;;;;;;9.42;98.71;99499.75;7393437;19;20364;-74
2023/10/25 04:57:44;;;;;;;7.23;5.33;;;;;;;9.39;98.69;99491.19;7392515;19;20920;-73
2023/10/25 05:00:11;;;;;;;7.05;5.53;;;;;;;9.37;99.02;99493.22;7393992;19;20347;-73
2023/10/25 05:02:38;;;;;;;10.40;6.50;;;;;;;9.34;99.29;99498.91;7392242;19;20420;-73
2023/10/25 05:05:07;;;;;;;9.07;6.50;;;;;;;9.31;99.25;99501.13;7394672;19;20845;-73
2023/10/25 05:07:37;;;;;;;9.95;6.10;;;;;;;9.26;99.45;99493.75;7392428;19;20469;-73
2023/10/25 05:10:06;;;;;;;9.50;6.57;;;;;;;9.25;99.27;99499.28;7392214;19;20755;-73
2023/10/25 05:12:38;;;;;;;8.43;6.35;;;;;;;9.21;99.36;99498.84;7390486;19;20901;-73
2023/10/25 05:15:07;;;;;;;9.07;6.47;;;;;;;9.18;98.90;99505.34;7391029;19;20410;-73
2023/10/25 05:17:34;;;;;;;9.45;6.07;;;;;;;9.16;99.25;99506.56;7394081;19;20686;-73
2023/10/25 05:20:04;;;;;;;8.52;6.38;;;;;;;9.12;99.09;99502.66;7391343;19;20915;-73
2023/10/25 05:22:36;;;;;;;9.43;6.70;;;;;;;9.08;99.03;99493.47;7390027;19;20368;-73
2023/10/25 05:25:05;;;;;;;9.85;6.90;;;;;;;9.04;98.85;99497.53;7390858;19;20405;-74
2023/10/25 05:27:33;;;;;;;11.93;7.07;;;;;;;8.99;99.01;99495.47;7392914;19;20408;-73
2023/10/25 05:30:04;;;;;;;8.45;6.55;;;;;;;8.93;99.14;99493.59;7394110;19;20351;-73
2023/10/25 05:32:33;;;;;;;10.55;7.40;;;;;;;8.87;98.99;99492.53;7393003;19;20443;-73
2023/10/25 05:35:02;;;;;;;10.48;7.20;;;;;;;8.80;99.50;99486.38;7401405;19;20336;-73
2023/10/25 05:37:29;;;;;;;10.57;6.80;;;;;;;8.77;99.89;99492.03;7402227;19;20434;-73
2023/10/25 05:39:57;;;;;;;10.20;6.47;;;;;;;8.74;99.92;99493.25;7398636;19;20368;-73
2023/10/25 05:42:24;;;;;;;8.98;6.30;;;;;;;8.70;100.00;99491.19;7399083;19;20432;-73
2023/10/25 05:44:54;;;;;;;9.68;6.80;;;;;;;8.68;100.00;99488.72;7398416;19;20349;-73
2023/10/25 05:47:24;;;;;;;9.38;6.93;;;;;;;8.65;99.92;99488.28;7400400;19;20365;-73
2023/10/25 05:49:51;;;;;;;8.70;6.65;;;;;;;8.62;100.00;99486.03;7400696;19;20700;-73
2023/10/25 05:52:19;;;;;;;9.90;6.50;;;;;;;8.58;100.00;99482.97;7397383;19;20376;-73
2023/10/25 05:54:46;;;;;;;10.70;7.00;;;;;;;8.55;100.00;99484.16;7397142;19;20359;-73
2023/10/25 05:57:14;;;;;;;11.82;7.50;;;;;;;8.54;100.00;99481.69;7397581;19;20361;-73
2023/10/25 05:59:41;;;;;;;10.07;7.45;;;;;;;8.53;100.00;99480.88;7399729;19;20353;-73
2023/10/25 06:02:10;;;;;;;10.00;6.90;;;;;;;8.52;100.00;99486.38;7398619;19;20437;-73
2023/10/25 06:04:39;;;;;;;8.60;6.68;;;;;;;8.49;100.00;99484.13;7396064;19;20349;-73
2023/10/25 06:07:07;;;;;;;11.50;6.97;;;;;;;8.44;100.00;99479.41;7397492;19;20749;-73
2023/10/25 06:09:34;;;;;;;12.05;7.57;;;;;;;8.39;99.95;99481.75;7398575;19;20356;-73
2023/10/25 06:12:02;;;;;;;9.63;6.88;;;;;;;8.34;100.00;99487.63;7397202;19;20368;-73
2023/10/25 06:14:31;;;;;;;9.98;6.50;;;;;;;8.29;100.00;99479.44;7397739;19;20731;-73
2023/10/25 06:16:58;;;;;;;9.35;6.50;;;;;;;8.26;100.00;99479.00;7395769;19;20456;-73
2023/10/25 06:19:26;;;;;;;9.45;6.13;;;;;;;8.20;100.00;99480.56;7398457;19;20857;-73
2023/10/25 06:21:54;;;;;;;10.63;6.50;;;;;;;8.15;100.00;99481.13;7397630;19;20361;-73
2023/10/25 06:24:21;;;;;;;7.35;6.03;;;;;;;8.13;100.00;99490.25;7397508;19;20356;-73
2023/10/25 06:26:48;;;;;;;9.20;6.13;;;;;;;8.10;100.00;99478.25;7395771;19;20369;-73
2023/10/25 06:29:15;;;;;;;8.77;6.43;;;;;;;8.07;100.00;99491.81;7386512;19;20907;-74
2023/10/25 06:31:44;;;;;;;8.60;5.97;;;;;;;8.03;100.00;99490.56;7393483;19;20360;-73
2023/10/25 06:34:11;;;;;;;8.88;6.47;;;;;;;8.00;100.00;99490.94;7395530;19;20365;-73
2023/10/25 06:36:39;;;;;;;8.45;7.00;;;;;;;7.97;100.00;99486.06;7398452;19;20726;-73
2023/10/25 06:39:07;;;;;;;11.20;7.20;;;;;;;7.96;100.00;99485.22;7393951;19;20431;-73
2023/10/25 06:41:36;;;;;;;13.20;7.67;;;;;;;7.99;100.00;99488.50;7398571;19;20332;-73
2023/10/25 06:44:04;;;;;;;12.95;7.75;;;;;;;8.01;100.00;99484.69;7397507;19;20386;-73
2023/10/25 06:46:31;;;;;;;12.05;8.35;;;;;;;8.04;100.00;99481.66;7391733;19;20365;-73
2023/10/25 06:48:59;;;;;;;15.10;8.85;;;;;;;8.10;100.00;99486.19;7397761;19;20355;-75
2023/10/25 06:51:26;;;;;;;15.95;7.57;;;;;;;8.15;100.00;99480.34;7390425;19;20356;-78
2023/10/25 06:53:53;;;;;;;10.73;7.68;;;;;;;8.26;100.00;99484.28;7396494;19;20658;-79
2023/10/25 06:56:21;;;;;;;10.25;8.07;;;;;;;8.34;100.00;99489.44;7398541;19;20348;-79
2023/10/25 06:58:48;;;;;;;12.90;8.60;;;;;;;8.43;100.00;99492.81;7398252;19;20345;-77
2023/10/25 07:01:23;;;;;;;12.88;7.40;;;;;;;8.54;100.00;99487.00;7392537;19;20372;-78
2023/10/25 07:03:51;;;;;;;11.13;7.28;;;;;;;8.64;100.00;99489.31;7395535;19;20369;-78
2023/10/25 07:06:18;;;;;;;16.90;7.40;;;;;;;8.72;100.00;99489.19;7394152;19;20452;-78
2023/10/25 07:08:46;;;;;;;9.82;7.60;;;;;;;8.78;100.00;99493.69;7391988;19;20428;-78
2023/10/25 07:11:13;;;;;;;11.43;8.35;;;;;;;8.85;100.00;99491.91;7394742;19;21022;-78
2023/10/25 07:13:40;;;;;;;11.10;7.63;;;;;;;8.92;100.00;99487.47;7396946;19;20692;-78
2023/10/25 07:16:07;;;;;;;12.85;8.30;;;;;;;8.99;100.00;99482.25;7394000;19;20365;-78
2023/10/25 07:18:34;;;;;;;12.00;8.23;;;;;;;9.05;100.00;99483.28;7397081;19;20686;-78
2023/10/25 07:21:05;;;;;;;12.60;8.80;;;;;;;9.07;100.00;99486.53;7391989;19;20422;-78
2023/10/25 07:23:33;;;;;;;11.45;8.77;;;;;;;9.12;100.00;99492.09;7397913;19;20356;-78
2023/10/25 07:25:59;;;;;;;12.95;9.00;;;;;;;9.16;100.00;99490.69;7392274;19;20431;-78
2023/10/25 07:28:27;;;;;;;15.82;8.93;;;;;;;9.21;100.00;99490.91;7396510;19;20885;-78
2023/10/25 07:30:53;;;;;;;11.18;8.43;;;;;;;9.30;100.00;99495.00;7393141;19;20360;-78
2023/10/25 07:33:24;;;;;;;10.23;8.63;;;;;;;9.38;100.00;99500.13;7397565;19;20472;-78
2023/10/25 07:35:50;;;;;;;10.37;8.13;;;;;;;9.50;100.00;99504.88;7395268;19;20406;-78
2023/10/25 07:38:17;;;;;;;11.63;8.07;;;;;;;9.63;100.00;99501.47;7391910;19;20420;-78
2023/10/25 07:40:44;;;;;;;12.68;8.23;;;;;;;9.74;100.00;99496.41;7397505;19;20379;-78
2023/10/25 07:43:11;;;;;;;9.40;7.90;;;;;;;9.84;100.00;99489.91;7397752;19;20383;-78
2023/10/25 07:45:38;;;;;;;10.63;7.47;;;;;;;9.94;99.61;99493.00;7393158;19;20350;-78
2023/10/25 07:48:05;;;;;;;8.90;7.25;;;;;;;10.04;99.45;99497.94;7393860;19;20364;-79
2023/10/25 07:50:34;;;;;;;11.30;7.38;;;;;;;10.17;99.17;99485.50;7393116;19;20362;-78
2023/10/25 07:53:01;;;;;;;10.40;7.13;;;;;;;10.29;98.88;99495.53;7398065;19;20765;-78
2023/10/25 07:55:28;;;;;;;8.57;7.00;;;;;;;10.39;98.57;99486.19;7387988;19;20356;-78
2023/10/25 07:57:58;;;;;;;11.32;6.93;;;;;;;10.53;98.30;99486.19;7395234;19;20440;-78
2023/10/25 08:00:28;;;;;;;11.00;7.10;;;;;;;10.63;97.47;99485.78;7395012;19;20704;-78
2023/10/25 08:02:54;;;;;;;10.13;6.75;;;;;;;10.69;96.51;99488.44;7391853;19;20866;-79
2023/10/25 08:05:21;;;;;;;8.70;6.43;;;;;;;10.79;96.54;99485.34;7394480;19;20888;-79
2023/10/25 08:07:48;;;;;;;9.95;7.45;;;;;;;10.91;96.18;99473.09;7396942;19;20786;-79
2023/10/25 08:10:15;;;;;;;7.43;6.00;;;;;;;11.03;96.18;99475.94;7394596;19;20690;-78
2023/10/25 08:12:42;;;;;;;7.93;6.10;;;;;;;11.15;95.49;99479.56;7392867;19;20353;-78
2023/10/25 08:15:09;;;;;;;10.65;5.78;;;;;;;11.25;94.67;99479.13;7393140;19;20371;-79
2023/10/25 08:17:36;;;;;;;7.72;6.00;;;;;;;11.34;94.31;99477.06;7394728;19;20371;-79
2023/10/25 08:20:05;;;;;;;8.82;5.47;;;;;;;11.43;93.51;99476.63;7396032;19;20360;-79
2023/10/25 08:22:33;;;;;;;8.73;5.88;;;;;;;11.52;93.35;99473.72;7396258;19;20372;-79
2023/10/25 08:25:00;;;;;;;8.07;5.50;;;;;;;11.60;92.81;99462.84;7395176;19;20427;-79
2023/10/25 08:27:27;;;;;;;8.10;5.68;;;;;;;11.71;92.92;99467.50;7396018;19;20364;-79
2023/10/25 08:29:56;;;;;;;9.80;5.93;;;;;;;11.84;92.77;99466.63;7392906;19;20353;-79
2023/10/25 08:32:23;;;;;;;8.15;5.60;;;;;;;11.96;92.52;99459.59;7394389;19;20361;-79
2023/10/25 08:34:50;;;;;;;7.68;4.80;;;;;;;12.07;92.29;99466.09;7393154;19;20714;-79
2023/10/25 08:37:17;;;;;;;7.57;5.20;;;;;;;12.18;91.86;99462.75;7395825;19;20408;-79
2023/10/25 08:39:44;;;;;;;6.30;4.75;;;;;;;12.29;91.14;99460.41;7382522;19;20369;-79
2023/10/25 08:42:12;;;;;;;6.47;4.70;;;;;;;12.37;90.73;99466.28;7388653;19;20886;-79
2023/10/25 08:44:42;;;;;;;6.95;4.65;;;;;;;12.43;89.69;99465.41;7381155;19;20373;-79
2023/10/25 08:47:11;;;;;;;7.05;5.13;;;;;;;12.41;88.23;99461.31;7383676;19;20360;-79
2023/10/25 08:49:39;;;;;;;6.90;4.80;;;;;;;12.47;88.73;99470.28;7385428;19;20388;-79
2023/10/25 08:52:07;;;;;;;7.72;5.45;;;;;;;12.50;88.73;99470.69;7381570;19;20407;-79
2023/10/25 08:54:37;;;;;;;8.35;4.70;;;;;;;12.52;88.35;99457.16;7386589;19;20356;-78
2023/10/25 08:57:04;;;;;;;7.63;4.73;;;;;;;12.58;88.29;99448.28;7388788;19;20423;-79
2023/10/25 08:59:45;;;;;;;10.70;4.43;;;;;;;12.61;87.67;99446.00;7390750;19;20710;-79
2023/10/25 09:02:12;;;;;;;7.63;4.70;;;;;;;12.68;87.03;99445.16;7392717;19;20371;-79
2023/10/25 09:05:06;;;;;;;6.25;4.45;;;;;;;12.76;87.82;99439.53;7389843;19;20926;-79
2023/10/25 09:07:35;;;;;;;6.13;4.07;;;;;;;12.80;87.30;99441.53;7393198;19;20434;-79
2023/10/25 09:10:04;;;;;;;5.72;4.20;;;;;;;12.84;86.97;99439.25;7390422;19;20878;-79
2023/10/25 09:12:32;;;;;;;7.78;4.47;;;;;;;12.87;86.78;99432.69;7391259;19;20360;-79
2023/10/25 09:14:59;;;;;;;5.57;3.78;;;;;;;12.88;86.13;99432.47;7392288;19;20364;-79
2023/10/25 09:17:26;;;;;;;6.47;4.10;;;;;;;12.95;86.91;99429.72;7391181;19;20370;-79
2023/10/25 09:19:53;;;;;;;4.63;3.67;;;;;;;13.02;86.19;99430.47;7391023;19;20361;-79
2023/10/25 09:22:25;;;;;;;4.97;4.03;;;;;;;13.03;85.31;99442.75;7393512;19;20353;-78
2023/10/25 09:25:00;;;;;;;5.13;3.80;;;;;;;13.09;86.14;99431.22;7388054;19;20725;-79
2023/10/25 09:27:28;;;;;;;6.05;4.10;;;;;;;13.05;84.77;99441.47;7394135;19;20357;-80
2023/10/25 09:30:12;;;;;;;6.22;3.75;;;;;;;13.05;84.92;99430.84;7388749;19;20361;-80
2023/10/25 09:32:53;;;;;;;10.93;8.30;;;;;;;13.18;85.30;99429.88;7391518;19;20398;-80
2023/10/25 09:35:20;;;;;;;5.22;3.65;;;;;;;13.18;84.15;99429.06;7390924;19;20354;-77
2023/10/25 09:37:47;;;;;;;7.13;3.90;;;;;;;13.26;84.62;99424.25;7391794;19;20348;-77
2023/10/25 09:40:14;;;;;;;5.18;3.83;;;;;;;13.33;84.67;99426.84;7391493;19;20412;-77
2023/10/25 09:42:52;;;;;;;5.57;3.35;;;;;;;13.53;85.36;99413.25;7394123;19;20364;-77
2023/10/25 09:45:31;;;;;;;6.30;3.22;;;;;;;13.62;83.92;99408.44;7392886;19;20356;-76
2023/10/25 09:48:03;;;;;;;6.10;3.58;;;;;;;13.74;84.46;99395.16;7389110;19;20775;-77
2023/10/25 09:50:34;;;;;;;5.80;3.40;;;;;;;13.79;83.29;99393.44;7391334;19;20913;-77
2023/10/25 09:53:12;;;;;;;5.72;4.03;;;;;;;13.80;83.08;99394.25;7389948;19;20384;-77
2023/10/25 09:55:45;;;;;;;5.95;3.63;;;;;;;13.94;83.49;99387.69;7392286;19;20373;-80
2023/10/25 09:58:15;;;;;;;4.97;3.22;;;;;;;13.99;82.35;99395.00;7393008;19;20360;-80
2023/10/25 10:00:42;;;;;;;5.32;2.92;;;;;;;14.07;82.48;99392.78;7393793;19;20363;-81
2023/10/25 10:03:14;;;;;;;3.95;2.85;;;;;;;14.15;81.55;99390.81;7386818;19;21011;-80
2023/10/25 10:05:50;;;;;;;4.97;3.10;;;;;;;14.24;81.86;99384.13;7391363;19;20389;-80
2023/10/25 10:08:23;;;;;;;6.07;3.65;;;;;;;14.30;80.91;99383.19;7388667;19;20360;-80
2023/10/25 10:10:58;;;;;;;7.50;3.38;;;;;;;14.46;81.03;99387.03;7388186;19;20399;-79
2023/10/25 10:13:26;;;;;;;5.75;2.90;;;;;;;14.65;80.78;99375.19;7387334;19;20372;-78
2023/10/25 10:16:05;;;;;;;4.22;2.92;;;;;;;14.83;80.27;99387.59;7392533;19;20401;-80
2023/10/25 10:18:45;;;;;;;5.50;3.10;;;;;;;14.93;79.10;99386.19;7395925;19;20380;-79
2023/10/25 10:21:16;;;;;;;6.25;3.22;;;;;;;14.88;77.39;99371.69;7398759;19;20805;-79
2023/10/25 10:23:50;;;;;;;4.65;3.00;;;;;;;14.89;78.52;99364.47;7398260;19;20439;-79
2023/10/25 10:26:46;;;;;;;5.10;2.60;;;;;;;14.97;78.39;99364.13;7396684;19;20363;-79
2023/10/25 10:29:31;;;;;;;5.55;2.85;;;;;;;14.95;76.14;99368.88;7394527;19;20341;-79
2023/10/25 10:31:59;;;;;;;7.47;3.10;;;;;;;15.00;76.55;99361.00;7395708;19;20371;-79
2023/10/25 10:34:45;;;;;;;5.20;2.83;;;;;;;14.99;75.77;99354.00;7399456;19;20343;-77
2023/10/25 10:37:13;;;;;;;4.88;2.60;;;;;;;14.98;76.06;99352.41;7397971;19;20364;-77
2023/10/25 10:40:03;;;;;;;35.75;27.63;;;;;;;14.97;76.48;99356.09;7399457;19;20363;-77
2023/10/25 10:42:38;;;;;;;5.22;3.00;;;;;;;15.06;77.16;99354.66;7392056;19;21011;-78
2023/10/25 10:45:16;;;;;;;4.30;2.60;;;;;;;15.16;76.42;99363.94;7392004;19;20473;-78
2023/10/25 10:47:53;;;;;;;5.50;2.42;;;;;;;15.22;76.41;99357.66;7395376;19;20379;-78
2023/10/25 10:50:22;;;;;;;3.83;2.50;;;;;;;15.19;75.33;99356.25;7398252;19;20349;-78
2023/10/25 10:52:52;;;;;;;4.70;2.30;;;;;;;15.28;75.25;99351.38;7394876;19;20367;-78
2023/10/25 10:55:24;;;;;;;3.30;2.10;;;;;;;15.20;73.38;99343.72;7398253;19;20346;-78
2023/10/25 10:57:52;;;;;;;3.67;2.10;;;;;;;15.29;74.54;99343.09;7396360;19;20359;-78
2023/10/25 11:00:22;;;;;;;4.60;2.38;;;;;;;15.35;73.68;99346.69;7387523;19;20423;-78
2023/10/25 11:02:50;;;;;;;4.32;2.40;;;;;;;15.18;72.97;99335.16;7389076;19;20347;-82
2023/10/25 11:05:22;;;;;;;6.70;3.22;;;;;;;15.24;74.37;99335.00;7399284;19;20372;-81
2023/10/25 11:07:50;;;;;;;4.85;2.50;;;;;;;15.48;74.87;99332.22;7398196;19;20868;-83
2023/10/25 11:10:18;;;;;;;4.85;2.83;;;;;;;15.67;73.35;99332.81;7401376;19;20344;-81
2023/10/25 11:12:45;;;;;;;3.38;2.20;;;;;;;15.84;72.93;99330.97;7392918;19;20908;-81
2023/10/25 11:15:13;;;;;;;3.63;1.80;;;;;;;16.06;71.52;99330.25;7397316;19;20345;-81
2023/10/25 11:17:40;;;;;;;4.97;2.38;;;;;;;16.26;70.04;99319.84;7394561;19;20365;-81
2023/10/25 11:20:07;;;;;;;4.38;2.20;;;;;;;16.46;70.69;99318.50;7398090;19;20359;-81
2023/10/25 11:22:36;;;;;;;3.33;1.90;;;;;;;16.48;69.97;99303.00;7397580;19;20377;-81
2023/10/25 11:25:11;;;;;;;5.05;2.03;;;;;;;16.49;69.37;99299.25;7394962;19;20367;-81
2023/10/25 11:27:41;;;;;;;3.13;1.60;;;;;;;16.52;69.72;99282.72;7397306;19;20551;-81
2023/10/25 11:30:08;;;;;;;6.23;2.10;;;;;;;16.65;69.03;99276.97;7394164;19;20432;-81
2023/10/25 11:32:36;;;;;;;2.75;1.75;;;;;;;16.89;69.09;99272.22;7396129;19;20888;-81
2023/10/25 11:35:06;;;;;;;3.77;1.80;;;;;;;17.27;69.16;99264.28;7398042;19;20415;-81
2023/10/25 11:37:49;;;;;;;4.40;1.90;;;;;;;17.53;68.63;99268.81;7400018;19;20357;-81
2023/10/25 11:40:16;;;;;;;3.80;1.60;;;;;;;17.74;67.00;99268.94;7394950;19;20417;-81